Mount Dora, FL

9:23 PM EST on February 11, 2016 (GMT -0500)
Loch Leven | | Change Station
CLOSE
Current Station
Personal Weather Station
Location: Mount Dora, FL
Elevation: 174 ft
Nearby Weather Stations

Elev 174 ft 28.84 °N, 81.63 °W | Updated 1 minute ago

Clear
Clear
66.4 °F
Feels Like 66.4 °F
N
2.2
Wind Variable Wind from West

Today
High -- | Low -- °F
--% Chance of Precip.
Yesterday
High -- | Low -- °F
Precip. -- in
Pressure 30.29 in
Visibility 10.0 miles
Clouds Clear
Dew Point 42.0 °F
Humidity 41%
Rainfall 0.00 in
Snow Depth Not available.
7:08 AM 6:13 PM
Waxing Crescent, 16% visible
METAR KLEE 120153Z AUTO 29004KT 10SM CLR 12/07 A3029 RMK AO2 SLP257 T01220067
Pressure 30.29 in
Visibility 10.0 miles
Clouds Clear
Dew Point 42.0 °F
Humidity 41%
Rainfall 0.00 in
Snow Depth Not available.
7:08 AM 6:13 PM
Waxing Crescent, 16% visible
METAR KLEE 120153Z AUTO 29004KT 10SM CLR 12/07 A3029 RMK AO2 SLP257 T01220067

10-Day Weather Forecast

Almanac

Astronomy

Feb. 11, 2016 Rise Set
Actual Time
Civil Twilight
Nautical Twilight
Astronomical Twilight
Moon
Length of Visible Light
Length of Day
Tomorrow will be .
, % of the Moon is Illuminated

Today's Extremes

State Highs State Lows

Community

WunderPhotos

Upload Photos

1,892,226 photos uploaded!

WunderBlog® & News

Nearby

Air Quality

  Air Quality AQ Index Pollutant
Not available.

Snow Depth

Station Depth Elevation

Earthquake Activity

City Distance Mag. Time & Date
Minimum magnitude displayed is 2.5.

Coastal Water Temperatures

Place Temperature

Stations

Nearby Weather Stations

Station Location Temp. Windchill Dew Point Humidity Wind Precip. Elev Updated Type
                   

Watches & Warnings

There are currently no watches in effect.